Google Maps JavaScript API Example
Pilot Flight Report # 93698 Submitted by : AST195 on 2020-02-12
Date: 2020-02-12Aircraft: Boeing 737-800
Flight No.: AST0790Distance (Nm): 661.47
Departure: KBTV - Burlington InternationalDestination: KORD - Chicago-O'Hare International
 TimeFuelWeightSpeeds  
Out (Taxi)1946 Flight RulesIFR
Off (Takeoff)1946 Flight Level
On (Landing)2201 VSTD
In (Ramp)2201 ZFW
Flight2.25  -  2:1520  Pax0
Block2.25  -  2:1520  Cargo0
Departure WeatherKBTV 122154Z 18011G18KT 10SM OVC240 02/M06 A3002 RMK AO2 SLP171 T00171061
Destination WeatherKORD 122220Z 18003KT 3/4SM R10L/4500V5500FT -SN BR SCT006 BKN011 OVC018 01/M01 A2985 RMK AO2 P0002 T00061011
Flight CommentsN/A